Time;durP1;ratioP1;P1;durP2;ratioP2;P2;SDS_P1;SDS_P2;PMS_P1;PMS_P2;Temp;Humidity;BMP_temperature;BMP_pressure;BME280_temperature;BME280_humidity;BME280_pressure;Samples;Min_cycle;Max_cycle;Signal;HPM_P1;HPM_P2
2023/05/27 00:01:35;;;;;;;2.70;2.15;;;;;;;;;;5139884;27;20258;-67
2023/05/27 00:04:04;;;;;;;3.20;2.50;;;;;;;;;;5139214;27;20238;-67
2023/05/27 00:06:32;;;;;;;3.97;2.63;;;;;;;;;;5139508;27;20210;-67
2023/05/27 00:09:00;;;;;;;3.83;2.53;;;;;;;;;;5139693;27;20208;-67
2023/05/27 00:11:27;;;;;;;3.83;2.50;;;;;;;;;;5139891;27;20202;-67
2023/05/27 00:13:55;;;;;;;4.47;2.78;;;;;;;;;;5139419;27;20202;-67
2023/05/27 00:16:23;;;;;;;3.97;2.45;;;;;;;;;;5139744;27;20210;-68
2023/05/27 00:18:52;;;;;;;3.58;2.60;;;;;;;;;;5139550;27;20248;-68
2023/05/27 00:21:21;;;;;;;4.00;2.63;;;;;;;;;;5139217;27;20202;-67
2023/05/27 00:23:50;;;;;;;3.25;2.72;;;;;;;;;;5139371;27;20209;-67
2023/05/27 00:26:17;;;;;;;2.78;2.40;;;;;;;;;;5139768;27;20284;-67
2023/05/27 00:28:45;;;;;;;3.92;2.40;;;;;;;;;;5139113;27;20234;-67
2023/05/27 00:31:13;;;;;;;2.67;2.45;;;;;;;;;;5138387;27;20202;-67
2023/05/27 00:33:40;;;;;;;3.95;2.38;;;;;;;;;;5139177;27;20202;-67
2023/05/27 00:36:08;;;;;;;3.92;2.53;;;;;;;;;;5138832;27;20555;-68
2023/05/27 00:38:37;;;;;;;2.72;2.33;;;;;;;;;;5138700;27;20308;-67
2023/05/27 00:41:05;;;;;;;4.40;2.50;;;;;;;;;;5139438;27;20217;-67
2023/05/27 00:43:33;;;;;;;4.45;2.50;;;;;;;;;;5138736;27;20241;-67
2023/05/27 00:46:01;;;;;;;5.10;2.60;;;;;;;;;;5138832;27;20262;-66
2023/05/27 00:48:29;;;;;;;4.93;2.90;;;;;;;;;;5139399;27;20209;-66
2023/05/27 00:50:56;;;;;;;3.58;2.72;;;;;;;;;;5139074;27;20202;-67
2023/05/27 00:53:25;;;;;;;4.32;3.00;;;;;;;;;;5139003;27;20229;-67
2023/05/27 00:55:55;;;;;;;3.83;2.72;;;;;;;;;;5138730;27;20213;-66
2023/05/27 00:58:23;;;;;;;3.38;2.60;;;;;;;;;;5138580;27;20210;-66
2023/05/27 01:00:51;;;;;;;5.10;3.10;;;;;;;;;;5138649;28;20202;-66
2023/05/27 01:03:20;;;;;;;4.45;2.72;;;;;;;;;;5138780;28;20229;-66
2023/05/27 01:05:47;;;;;;;4.60;3.05;;;;;;;;;;5138734;28;20210;-67
2023/05/27 01:08:20;;;;;;;4.25;2.50;;;;;;;;;;5139272;28;20201;-68
2023/05/27 01:10:50;;;;;;;4.47;3.05;;;;;;;;;;5138789;28;20198;-67
2023/05/27 01:13:26;;;;;;;4.47;2.83;;;;;;;;;;5138376;28;20202;-67
2023/05/27 01:15:55;;;;;;;4.68;2.70;;;;;;;;;;5138710;28;20209;-68
2023/05/27 01:18:24;;;;;;;4.82;2.90;;;;;;;;;;5138974;28;20578;-67
2023/05/27 01:20:52;;;;;;;3.70;2.60;;;;;;;;;;5138574;28;20229;-67
2023/05/27 01:23:22;;;;;;;3.70;2.90;;;;;;;;;;5138247;28;20226;-67
2023/05/27 01:25:50;;;;;;;3.13;2.78;;;;;;;;;;5138858;28;20206;-66
2023/05/27 01:28:17;;;;;;;3.85;2.70;;;;;;;;;;5138732;28;21554;-68
2023/05/27 01:30:45;;;;;;;3.17;2.55;;;;;;;;;;5138945;28;20206;-67
2023/05/27 01:33:15;;;;;;;4.65;2.50;;;;;;;;;;5138569;28;20210;-68
2023/05/27 01:35:45;;;;;;;4.78;2.90;;;;;;;;;;5138281;28;20202;-67
2023/05/27 01:38:15;;;;;;;4.50;3.08;;;;;;;;;;5138499;28;20202;-66
2023/05/27 01:40:44;;;;;;;3.90;2.60;;;;;;;;;;5138218;28;20234;-67
2023/05/27 01:43:13;;;;;;;5.15;2.60;;;;;;;;;;5138129;28;20202;-68
2023/05/27 01:45:41;;;;;;;3.65;2.67;;;;;;;;;;5138624;28;20206;-68
2023/05/27 01:48:09;;;;;;;4.10;2.40;;;;;;;;;;5139637;27;20203;-67
2023/05/27 01:50:36;;;;;;;4.30;2.50;;;;;;;;;;5142102;27;20209;-68
2023/05/27 01:53:04;;;;;;;3.78;2.72;;;;;;;;;;5142424;27;20202;-67
2023/05/27 01:55:32;;;;;;;3.70;2.70;;;;;;;;;;5141995;27;20255;-68
2023/05/27 01:58:01;;;;;;;4.28;2.72;;;;;;;;;;5142104;27;20203;-67
2023/05/27 02:00:28;;;;;;;5.07;2.67;;;;;;;;;;5141990;27;20226;-68
2023/05/27 02:02:56;;;;;;;3.13;2.70;;;;;;;;;;5142209;27;20259;-67
2023/05/27 02:05:24;;;;;;;3.90;2.38;;;;;;;;;;5141808;27;20202;-67
2023/05/27 02:07:51;;;;;;;3.97;2.70;;;;;;;;;;5141521;27;20252;-68
2023/05/27 02:10:19;;;;;;;3.30;2.45;;;;;;;;;;5141874;27;20198;-67
2023/05/27 02:12:47;;;;;;;3.58;2.80;;;;;;;;;;5141775;27;20264;-68
2023/05/27 02:15:16;;;;;;;4.40;2.58;;;;;;;;;;5141639;27;20209;-68
2023/05/27 02:17:46;;;;;;;3.78;2.50;;;;;;;;;;5141658;27;20217;-67
2023/05/27 02:20:14;;;;;;;3.63;2.53;;;;;;;;;;5141854;27;20629;-68
2023/05/27 02:22:42;;;;;;;3.22;2.40;;;;;;;;;;5141529;27;20203;-68
2023/05/27 02:25:09;;;;;;;3.78;2.33;;;;;;;;;;5141751;27;20206;-68
2023/05/27 02:27:37;;;;;;;4.68;2.88;;;;;;;;;;5141558;27;20213;-68
2023/05/27 02:30:04;;;;;;;2.80;2.50;;;;;;;;;;5141265;27;20237;-68
2023/05/27 02:32:33;;;;;;;4.28;3.05;;;;;;;;;;5141222;27;20202;-68
2023/05/27 02:35:01;;;;;;;3.58;2.63;;;;;;;;;;5141290;27;20213;-67
2023/05/27 02:37:28;;;;;;;3.95;2.67;;;;;;;;;;5141507;27;20571;-68
2023/05/27 02:39:56;;;;;;;3.60;2.40;;;;;;;;;;5140972;27;20241;-68
2023/05/27 02:42:23;;;;;;;3.97;2.42;;;;;;;;;;5141194;27;20288;-68
2023/05/27 02:44:50;;;;;;;3.08;2.50;;;;;;;;;;5141436;27;20203;-68
2023/05/27 02:47:18;;;;;;;3.83;2.60;;;;;;;;;;5141568;27;20210;-68
2023/05/27 02:49:46;;;;;;;3.22;2.53;;;;;;;;;;5141062;27;20206;-68
2023/05/27 02:52:14;;;;;;;3.90;2.75;;;;;;;;;;5140916;27;20210;-68
2023/05/27 02:54:41;;;;;;;4.00;2.55;;;;;;;;;;5140499;27;20202;-67
2023/05/27 02:57:09;;;;;;;2.78;2.40;;;;;;;;;;5140659;27;20206;-68
2023/05/27 02:59:36;;;;;;;5.47;2.55;;;;;;;;;;5139733;27;20242;-68
2023/05/27 03:02:04;;;;;;;4.28;2.55;;;;;;;;;;5140631;27;20206;-69
2023/05/27 03:04:32;;;;;;;4.28;2.60;;;;;;;;;;5140875;27;20245;-68
2023/05/27 03:07:00;;;;;;;4.28;2.58;;;;;;;;;;5140938;27;20202;-68
2023/05/27 03:09:28;;;;;;;3.25;2.22;;;;;;;;;;5140874;27;20199;-68
2023/05/27 03:11:55;;;;;;;3.65;2.60;;;;;;;;;;5140453;27;20202;-69
2023/05/27 03:14:22;;;;;;;4.38;2.45;;;;;;;;;;5140283;27;20640;-68
2023/05/27 03:16:50;;;;;;;3.92;2.80;;;;;;;;;;5140571;27;20206;-68
2023/05/27 03:19:18;;;;;;;4.78;3.05;;;;;;;;;;5140683;27;20202;-67
2023/05/27 03:21:45;;;;;;;3.40;2.67;;;;;;;;;;5140494;27;20605;-68
2023/05/27 03:24:14;;;;;;;3.28;2.60;;;;;;;;;;5140204;27;20202;-68
2023/05/27 03:26:41;;;;;;;3.78;2.88;;;;;;;;;;5140289;27;20206;-68
2023/05/27 03:29:08;;;;;;;3.63;2.60;;;;;;;;;;5139990;27;20237;-68
2023/05/27 03:31:36;;;;;;;2.70;2.05;;;;;;;;;;5139574;27;20202;-68
2023/05/27 03:34:04;;;;;;;4.22;2.40;;;;;;;;;;5139944;27;20209;-68
2023/05/27 03:36:31;;;;;;;3.22;2.47;;;;;;;;;;5139671;27;20202;-68
2023/05/27 03:38:58;;;;;;;3.78;2.30;;;;;;;;;;5139829;27;20213;-68
2023/05/27 03:41:27;;;;;;;3.40;2.67;;;;;;;;;;5139736;27;20237;-69
2023/05/27 03:43:54;;;;;;;4.35;2.80;;;;;;;;;;5139355;27;20209;-68
2023/05/27 03:46:22;;;;;;;3.50;2.47;;;;;;;;;;5139570;27;20494;-68
2023/05/27 03:48:49;;;;;;;3.45;2.40;;;;;;;;;;5139726;27;20217;-68
2023/05/27 03:51:17;;;;;;;4.38;2.60;;;;;;;;;;5139896;27;20205;-68
2023/05/27 03:53:44;;;;;;;4.28;3.00;;;;;;;;;;5139553;27;20203;-68
2023/05/27 03:56:11;;;;;;;3.28;2.65;;;;;;;;;;5139179;27;20206;-68
2023/05/27 03:58:40;;;;;;;3.05;2.55;;;;;;;;;;5139086;27;20416;-68
2023/05/27 04:01:08;;;;;;;3.45;2.42;;;;;;;;;;5139189;27;20866;-68
2023/05/27 04:03:37;;;;;;;4.53;2.72;;;;;;;;;;5138941;27;20202;-68
2023/05/27 04:06:05;;;;;;;3.28;2.70;;;;;;;;;;5139067;27;20209;-68
2023/05/27 04:08:33;;;;;;;2.85;2.08;;;;;;;;;;5139571;27;20484;-68
2023/05/27 04:11:00;;;;;;;4.40;2.83;;;;;;;;;;5138807;27;20297;-68
2023/05/27 04:13:28;;;;;;;3.15;2.60;;;;;;;;;;5138935;27;20224;-69
2023/05/27 04:15:57;;;;;;;4.47;2.88;;;;;;;;;;5139047;27;20202;-68
2023/05/27 04:18:24;;;;;;;3.63;2.47;;;;;;;;;;5139087;27;20201;-68
2023/05/27 04:20:52;;;;;;;3.45;2.72;;;;;;;;;;5138896;27;20218;-68
2023/05/27 04:23:19;;;;;;;4.57;2.72;;;;;;;;;;5138955;27;20309;-68
2023/05/27 04:25:48;;;;;;;3.70;2.60;;;;;;;;;;5138692;27;20215;-68
2023/05/27 04:28:16;;;;;;;5.22;2.92;;;;;;;;;;5138755;27;20233;-69
2023/05/27 04:30:45;;;;;;;4.35;2.58;;;;;;;;;;5138709;27;20198;-68
2023/05/27 04:33:14;;;;;;;3.20;2.50;;;;;;;;;;5138120;27;20209;-68
2023/05/27 04:35:43;;;;;;;3.75;2.55;;;;;;;;;;5139204;27;20210;-68
2023/05/27 04:38:15;;;;;;;4.32;2.60;;;;;;;;;;5139160;27;20255;-68
2023/05/27 04:40:44;;;;;;;3.67;2.40;;;;;;;;;;5138522;27;20237;-68
2023/05/27 04:43:14;;;;;;;2.80;2.55;;;;;;;;;;5138901;27;20202;-68
2023/05/27 04:45:41;;;;;;;4.65;2.70;;;;;;;;;;5138656;27;20256;-68
2023/05/27 04:48:10;;;;;;;3.30;2.45;;;;;;;;;;5138533;27;20221;-68
2023/05/27 04:50:39;;;;;;;5.22;2.67;;;;;;;;;;5138751;27;20198;-68
2023/05/27 04:53:06;;;;;;;4.40;2.85;;;;;;;;;;5138219;27;20266;-68
2023/05/27 04:55:34;;;;;;;3.03;2.50;;;;;;;;;;5138965;27;20291;-68
2023/05/27 04:58:03;;;;;;;3.28;2.72;;;;;;;;;;5138266;27;20636;-68
2023/05/27 05:00:38;;;;;;;3.42;2.67;;;;;;;;;;5138099;27;20237;-68
2023/05/27 05:03:06;;;;;;;3.70;2.80;;;;;;;;;;5138561;28;20220;-68
2023/05/27 05:05:34;;;;;;;3.88;3.03;;;;;;;;;;5138528;28;20262;-68
2023/05/27 05:08:04;;;;;;;3.65;2.53;;;;;;;;;;5138581;28;20202;-67
2023/05/27 05:10:32;;;;;;;4.32;2.80;;;;;;;;;;5138484;28;20264;-67
2023/05/27 05:12:59;;;;;;;4.57;3.15;;;;;;;;;;5137999;28;20758;-68
2023/05/27 05:15:27;;;;;;;3.97;2.80;;;;;;;;;;5138581;28;20202;-68
2023/05/27 05:17:54;;;;;;;5.03;3.13;;;;;;;;;;5138210;28;20228;-68
2023/05/27 05:20:21;;;;;;;3.80;2.90;;;;;;;;;;5138092;28;20294;-68
2023/05/27 05:22:49;;;;;;;4.93;3.40;;;;;;;;;;5139230;27;20613;-68
2023/05/27 05:25:18;;;;;;;5.47;3.33;;;;;;;;;;5142189;27;20202;-68
2023/05/27 05:27:45;;;;;;;4.05;3.00;;;;;;;;;;5142456;27;20587;-68
2023/05/27 05:30:13;;;;;;;5.10;3.03;;;;;;;;;;5142263;27;20257;-68
2023/05/27 05:32:40;;;;;;;3.80;2.80;;;;;;;;;;5141784;27;20241;-68
2023/05/27 05:35:08;;;;;;;3.85;3.00;;;;;;;;;;5141845;27;20220;-68
2023/05/27 05:37:36;;;;;;;4.80;2.97;;;;;;;;;;5141965;27;20593;-67
2023/05/27 05:40:03;;;;;;;3.92;3.20;;;;;;;;;;5141872;27;20202;-67
2023/05/27 05:42:32;;;;;;;5.03;3.13;;;;;;;;;;5141833;27;20287;-67
2023/05/27 05:44:59;;;;;;;4.47;2.97;;;;;;;;;;5141647;27;20210;-67
2023/05/27 05:47:26;;;;;;;5.25;3.13;;;;;;;;;;5141578;27;20205;-67
2023/05/27 05:49:54;;;;;;;4.97;3.25;;;;;;;;;;5142196;27;20566;-67
2023/05/27 05:52:21;;;;;;;4.90;3.30;;;;;;;;;;5141901;27;20528;-67
2023/05/27 05:54:49;;;;;;;4.85;3.28;;;;;;;;;;5141840;27;20202;-67
2023/05/27 05:57:16;;;;;;;5.00;3.38;;;;;;;;;;5141986;27;20203;-67
2023/05/27 05:59:45;;;;;;;4.57;3.10;;;;;;;;;;5141955;27;20213;-67
2023/05/27 06:02:12;;;;;;;6.53;3.63;;;;;;;;;;5141923;27;20226;-67
2023/05/27 06:04:40;;;;;;;5.22;3.58;;;;;;;;;;5141822;27;20206;-67
2023/05/27 06:07:07;;;;;;;5.30;3.60;;;;;;;;;;5141710;27;20238;-68
2023/05/27 06:09:35;;;;;;;6.30;3.22;;;;;;;;;;5141646;27;20301;-67
2023/05/27 06:12:02;;;;;;;5.05;3.67;;;;;;;;;;5141755;27;20198;-67
2023/05/27 06:14:29;;;;;;;6.28;3.75;;;;;;;;;;5141759;27;20202;-67
2023/05/27 06:16:58;;;;;;;5.10;3.50;;;;;;;;;;5141228;27;20194;-68
2023/05/27 06:19:26;;;;;;;5.65;3.80;;;;;;;;;;5141527;27;20202;-67
2023/05/27 06:21:53;;;;;;;5.78;3.70;;;;;;;;;;5140768;27;20516;-67
2023/05/27 06:24:20;;;;;;;5.65;3.90;;;;;;;;;;5141157;27;20212;-67
2023/05/27 06:26:49;;;;;;;6.22;3.72;;;;;;;;;;5141178;27;20206;-67
2023/05/27 06:29:18;;;;;;;6.53;3.75;;;;;;;;;;5141281;27;20283;-67
2023/05/27 06:31:46;;;;;;;5.43;3.72;;;;;;;;;;5140725;27;20249;-67
2023/05/27 06:34:15;;;;;;;4.82;3.50;;;;;;;;;;5140965;27;20206;-67
2023/05/27 06:36:42;;;;;;;6.07;3.47;;;;;;;;;;5140727;27;20194;-67
2023/05/27 06:39:10;;;;;;;6.15;3.55;;;;;;;;;;5140761;27;20202;-67
2023/05/27 06:41:37;;;;;;;6.85;3.70;;;;;;;;;;5140628;27;20226;-67
2023/05/27 06:44:04;;;;;;;5.60;4.05;;;;;;;;;;5139874;27;20202;-68
2023/05/27 06:46:32;;;;;;;6.07;3.45;;;;;;;;;;5139946;27;20213;-67
2023/05/27 06:48:59;;;;;;;5.32;3.53;;;;;;;;;;5140172;27;20460;-67
2023/05/27 06:51:28;;;;;;;5.57;4.07;;;;;;;;;;5140084;27;20198;-67
2023/05/27 06:53:55;;;;;;;5.57;3.78;;;;;;;;;;5140871;27;20202;-67
2023/05/27 06:56:23;;;;;;;4.95;3.60;;;;;;;;;;5140967;27;20206;-67
2023/05/27 06:58:50;;;;;;;5.68;3.40;;;;;;;;;;5140215;27;20203;-67
2023/05/27 07:01:18;;;;;;;6.13;3.83;;;;;;;;;;5140320;27;20226;-67
2023/05/27 07:03:45;;;;;;;6.20;4.15;;;;;;;;;;5139993;27;20220;-67
2023/05/27 07:06:12;;;;;;;5.03;3.30;;;;;;;;;;5139371;27;20213;-67
2023/05/27 07:08:41;;;;;;;7.22;4.20;;;;;;;;;;5139585;27;20213;-67
2023/05/27 07:11:08;;;;;;;7.28;3.90;;;;;;;;;;5139773;27;20593;-67
2023/05/27 07:13:36;;;;;;;7.75;3.80;;;;;;;;;;5140751;27;20209;-68
2023/05/27 07:16:03;;;;;;;7.88;3.55;;;;;;;;;;5140361;27;20509;-67
2023/05/27 07:18:30;;;;;;;6.18;3.92;;;;;;;;;;5139846;27;20202;-67
2023/05/27 07:20:58;;;;;;;5.32;3.28;;;;;;;;;;5140755;27;20229;-67
2023/05/27 07:23:25;;;;;;;6.68;3.35;;;;;;;;;;5138768;27;20202;-67
2023/05/27 07:25:54;;;;;;;6.28;3.90;;;;;;;;;;5138870;27;20624;-67
2023/05/27 07:28:21;;;;;;;9.35;3.78;;;;;;;;;;5138314;27;20237;-67
2023/05/27 07:30:49;;;;;;;5.88;3.60;;;;;;;;;;5137739;27;20217;-67
2023/05/27 07:33:16;;;;;;;6.38;3.63;;;;;;;;;;5137918;27;20618;-67
2023/05/27 07:35:43;;;;;;;5.68;3.50;;;;;;;;;;5139019;27;20205;-68
2023/05/27 07:38:11;;;;;;;7.35;3.40;;;;;;;;;;5138110;27;20413;-67
2023/05/27 07:40:38;;;;;;;6.25;3.35;;;;;;;;;;5138401;27;20202;-68
2023/05/27 07:43:07;;;;;;;4.78;3.25;;;;;;;;;;5137760;27;20206;-67
2023/05/27 07:45:34;;;;;;;6.88;3.40;;;;;;;;;;5137711;27;20202;-67
2023/05/27 07:48:01;;;;;;;6.13;3.67;;;;;;;;;;5137915;27;20225;-67
2023/05/27 07:50:29;;;;;;;6.47;3.35;;;;;;;;;;5138290;27;20233;-68
2023/05/27 07:52:56;;;;;;;6.53;3.40;;;;;;;;;;5137501;27;20194;-67
2023/05/27 07:55:24;;;;;;;5.78;3.65;;;;;;;;;;5136953;27;20209;-68
2023/05/27 07:57:52;;;;;;;7.35;3.85;;;;;;;;;;5137564;27;20465;-67
2023/05/27 08:00:20;;;;;;;6.60;3.70;;;;;;;;;;5137982;27;20202;-67
2023/05/27 08:02:48;;;;;;;8.82;3.55;;;;;;;;;;5138128;27;20526;-67
2023/05/27 08:05:15;;;;;;;8.55;3.78;;;;;;;;;;5138135;27;20202;-67
2023/05/27 08:07:42;;;;;;;7.28;3.60;;;;;;;;;;5137359;27;20202;-67
2023/05/27 08:10:11;;;;;;;7.65;3.40;;;;;;;;;;5138620;27;20207;-67
2023/05/27 08:12:38;;;;;;;7.40;3.60;;;;;;;;;;5138213;27;20202;-67
2023/05/27 08:15:06;;;;;;;6.53;3.72;;;;;;;;;;5138133;27;20519;-67
2023/05/27 08:17:35;;;;;;;7.68;3.80;;;;;;;;;;5138471;27;20297;-67
2023/05/27 08:20:05;;;;;;;7.55;4.03;;;;;;;;;;5136413;27;20617;-68
2023/05/27 08:22:33;;;;;;;7.28;3.90;;;;;;;;;;5137229;27;20233;-67
2023/05/27 08:25:00;;;;;;;7.93;3.25;;;;;;;;;;5137381;27;20289;-67
2023/05/27 08:27:42;;;;;;;5.38;4.03;;;;;;;;;;5136085;27;20210;-67
2023/05/27 08:30:10;;;;;;;7.05;3.65;;;;;;;;;;5136913;27;20630;-67
2023/05/27 08:32:39;;;;;;;7.72;3.90;;;;;;;;;;5135771;27;20203;-67
2023/05/27 08:35:06;;;;;;;5.80;3.58;;;;;;;;;;5136905;27;20590;-67
2023/05/27 08:37:35;;;;;;;5.05;3.42;;;;;;;;;;5137145;27;20206;-67
2023/05/27 08:42:49;;;;;;;5.55;3.55;;;;;;;;;;5135928;27;20313;-68
2023/05/27 08:45:17;;;;;;;8.05;3.92;;;;;;;;;;5136550;27;20201;-67
2023/05/27 08:47:48;;;;;;;6.05;3.50;;;;;;;;;;5136895;27;20202;-67
2023/05/27 08:50:16;;;;;;;8.43;3.80;;;;;;;;;;5136572;27;20213;-67
2023/05/27 08:52:47;;;;;;;6.43;3.65;;;;;;;;;;5136059;27;20413;-68
2023/05/27 08:55:16;;;;;;;6.50;3.80;;;;;;;;;;5136571;27;20527;-67
2023/05/27 08:57:45;;;;;;;9.05;3.75;;;;;;;;;;5134856;27;20288;-67
2023/05/27 09:00:14;;;;;;;6.38;3.67;;;;;;;;;;5136087;27;20209;-67
2023/05/27 09:02:42;;;;;;;6.15;3.38;;;;;;;;;;5136377;27;20260;-67
2023/05/27 09:05:12;;;;;;;6.50;3.28;;;;;;;;;;5135655;28;20316;-67
2023/05/27 09:07:39;;;;;;;6.30;3.83;;;;;;;;;;5135786;28;20208;-67
2023/05/27 09:10:07;;;;;;;7.15;3.35;;;;;;;;;;5136215;28;20297;-67
2023/05/27 09:12:35;;;;;;;5.00;3.20;;;;;;;;;;5136102;28;20233;-67
2023/05/27 09:15:03;;;;;;;5.20;3.70;;;;;;;;;;5135654;28;20202;-68
2023/05/27 09:17:31;;;;;;;8.15;3.65;;;;;;;;;;5135153;28;20204;-67
2023/05/27 09:19:59;;;;;;;5.63;3.08;;;;;;;;;;5135666;28;20220;-67
2023/05/27 09:22:30;;;;;;;5.38;3.20;;;;;;;;;;5136315;28;20237;-67
2023/05/27 09:24:57;;;;;;;6.03;3.47;;;;;;;;;;5136297;28;20202;-67
2023/05/27 09:27:28;;;;;;;6.15;3.60;;;;;;;;;;5136759;28;20485;-67
2023/05/27 09:29:55;;;;;;;6.65;3.35;;;;;;;;;;5135456;28;20222;-67
2023/05/27 09:32:26;;;;;;;6.13;3.60;;;;;;;;;;5135668;28;20515;-67
2023/05/27 09:34:54;;;;;;;7.10;3.90;;;;;;;;;;5135342;28;20247;-67
2023/05/27 09:37:21;;;;;;;7.25;3.50;;;;;;;;;;5134951;28;20206;-67
2023/05/27 09:39:53;;;;;;;5.65;3.05;;;;;;;;;;5135498;28;20210;-67
2023/05/27 09:42:20;;;;;;;5.85;3.38;;;;;;;;;;5136157;28;20236;-68
2023/05/27 09:44:49;;;;;;;7.90;3.88;;;;;;;;;;5135779;28;20274;-67
2023/05/27 09:47:20;;;;;;;6.47;3.40;;;;;;;;;;5136915;28;20283;-67
2023/05/27 09:49:49;;;;;;;5.03;3.42;;;;;;;;;;5137142;28;20263;-68
2023/05/27 09:52:19;;;;;;;5.72;3.72;;;;;;;;;;5136348;28;20209;-67
2023/05/27 09:54:46;;;;;;;8.65;3.88;;;;;;;;;;5135766;28;20620;-68
2023/05/27 09:57:15;;;;;;;6.65;3.75;;;;;;;;;;5135737;28;20210;-68
2023/05/27 09:59:43;;;;;;;6.43;3.40;;;;;;;;;;5135835;28;20202;-67
2023/05/27 10:02:16;;;;;;;6.65;3.80;;;;;;;;;;5136314;28;20598;-67
2023/05/27 10:04:44;;;;;;;6.45;3.55;;;;;;;;;;5134998;28;20253;-67
2023/05/27 10:07:12;;;;;;;6.30;3.45;;;;;;;;;;5136098;28;20202;-67
2023/05/27 10:09:39;;;;;;;6.05;3.67;;;;;;;;;;5137273;27;20213;-67
2023/05/27 10:12:07;;;;;;;5.78;3.50;;;;;;;;;;5140530;27;20216;-67
2023/05/27 10:14:38;;;;;;;8.07;3.80;;;;;;;;;;5139393;27;20203;-67
2023/05/27 10:17:05;;;;;;;5.60;3.50;;;;;;;;;;5139547;27;20614;-68
2023/05/27 10:19:33;;;;;;;4.97;2.95;;;;;;;;;;5138174;27;20202;-67
2023/05/27 10:22:11;;;;;;;5.65;3.70;;;;;;;;;;5138252;27;20224;-68
2023/05/27 10:24:38;;;;;;;6.15;3.90;;;;;;;;;;5139606;27;20213;-68
2023/05/27 10:27:06;;;;;;;5.95;3.45;;;;;;;;;;5139102;27;20211;-67
2023/05/27 10:29:38;;;;;;;6.20;3.60;;;;;;;;;;5138489;27;20230;-67
2023/05/27 10:32:06;;;;;;;5.75;3.70;;;;;;;;;;5138024;27;20563;-68
2023/05/27 10:34:36;;;;;;;6.65;3.70;;;;;;;;;;5137716;27;20199;-67
2023/05/27 10:37:04;;;;;;;6.03;3.53;;;;;;;;;;5138516;27;20237;-68
2023/05/27 10:39:31;;;;;;;5.45;3.53;;;;;;;;;;5138390;27;20206;-67
2023/05/27 10:41:59;;;;;;;4.50;3.40;;;;;;;;;;5138386;27;20241;-67
2023/05/27 10:44:30;;;;;;;7.80;3.40;;;;;;;;;;5138004;27;20202;-67
2023/05/27 10:47:02;;;;;;;6.18;3.42;;;;;;;;;;5138661;27;20202;-67
2023/05/27 10:49:35;;;;;;;6.18;3.50;;;;;;;;;;5138248;27;20206;-68
2023/05/27 10:52:10;;;;;;;5.47;3.53;;;;;;;;;;5137413;27;20213;-67
2023/05/27 10:54:38;;;;;;;5.90;3.28;;;;;;;;;;5137377;27;20521;-67
2023/05/27 10:57:06;;;;;;;5.43;3.10;;;;;;;;;;5138732;27;20670;-67
2023/05/27 10:59:41;;;;;;;6.50;3.28;;;;;;;;;;5137794;27;20229;-67
2023/05/27 11:02:09;;;;;;;5.80;3.33;;;;;;;;;;5138401;27;20633;-68
2023/05/27 11:04:37;;;;;;;4.93;3.08;;;;;;;;;;5137330;27;20202;-67
2023/05/27 11:07:05;;;;;;;4.50;2.95;;;;;;;;;;5138446;27;20203;-67
2023/05/27 11:09:33;;;;;;;5.93;3.30;;;;;;;;;;5138603;27;20202;-67
2023/05/27 11:12:03;;;;;;;5.93;3.40;;;;;;;;;;5138057;27;20383;-67
2023/05/27 11:14:32;;;;;;;4.95;3.20;;;;;;;;;;5137609;27;20540;-67
2023/05/27 11:16:59;;;;;;;5.53;2.90;;;;;;;;;;5138613;27;20421;-67
2023/05/27 11:19:28;;;;;;;4.63;3.05;;;;;;;;;;5138225;27;20210;-67
2023/05/27 11:21:55;;;;;;;6.95;3.80;;;;;;;;;;5137167;27;20202;-67
2023/05/27 11:24:23;;;;;;;4.35;3.08;;;;;;;;;;5137255;27;20514;-67
2023/05/27 11:26:50;;;;;;;5.30;3.08;;;;;;;;;;5137177;27;20209;-67
2023/05/27 11:29:18;;;;;;;5.65;3.55;;;;;;;;;;5136639;27;20435;-67
2023/05/27 11:31:48;;;;;;;6.70;3.45;;;;;;;;;;5136527;27;20202;-67
2023/05/27 11:34:15;;;;;;;5.07;3.00;;;;;;;;;;5135522;27;20213;-67
2023/05/27 11:36:45;;;;;;;5.60;3.30;;;;;;;;;;5136672;27;20758;-67
2023/05/27 11:39:16;;;;;;;4.28;2.90;;;;;;;;;;5136397;27;20217;-67
2023/05/27 11:41:53;;;;;;;4.55;2.92;;;;;;;;;;5135703;27;20203;-67
2023/05/27 11:44:23;;;;;;;4.32;2.97;;;;;;;;;;5137666;27;20209;-67
2023/05/27 11:46:51;;;;;;;4.85;3.22;;;;;;;;;;5137000;27;20214;-68
2023/05/27 11:49:19;;;;;;;5.93;3.15;;;;;;;;;;5136177;27;20271;-66
2023/05/27 11:51:48;;;;;;;5.40;3.00;;;;;;;;;;5136239;27;20209;-67
2023/05/27 11:54:21;;;;;;;6.15;3.10;;;;;;;;;;5134348;27;20206;-68
2023/05/27 11:56:49;;;;;;;5.22;3.20;;;;;;;;;;5135561;27;20225;-66
2023/05/27 11:59:16;;;;;;;6.25;2.90;;;;;;;;;;5135176;27;20212;-68
2023/05/27 12:01:45;;;;;;;4.55;2.70;;;;;;;;;;5136519;27;20198;-68
2023/05/27 12:04:12;;;;;;;4.22;2.65;;;;;;;;;;5136215;27;20232;-68
2023/05/27 12:06:40;;;;;;;4.28;3.00;;;;;;;;;;5134759;27;20267;-68
2023/05/27 12:09:09;;;;;;;3.78;3.03;;;;;;;;;;5136361;27;20371;-66
2023/05/27 12:11:37;;;;;;;3.38;2.50;;;;;;;;;;5135995;27;20233;-68
2023/05/27 12:14:04;;;;;;;3.38;2.67;;;;;;;;;;5135500;27;20203;-68
2023/05/27 12:16:32;;;;;;;4.70;3.00;;;;;;;;;;5136745;27;20210;-67
2023/05/27 12:18:59;;;;;;;4.25;2.95;;;;;;;;;;5136270;27;20213;-67
2023/05/27 12:21:27;;;;;;;4.05;2.47;;;;;;;;;;5135210;27;20194;-67
2023/05/27 12:23:54;;;;;;;4.68;2.70;;;;;;;;;;5135392;27;20230;-67
2023/05/27 12:26:24;;;;;;;4.68;2.40;;;;;;;;;;5136149;27;20605;-68
2023/05/27 12:28:51;;;;;;;4.47;2.75;;;;;;;;;;5134946;27;20233;-67
2023/05/27 12:31:18;;;;;;;3.70;2.83;;;;;;;;;;5135915;27;20663;-67
2023/05/27 12:33:46;;;;;;;4.70;2.67;;;;;;;;;;5136967;27;20198;-67
2023/05/27 12:36:13;;;;;;;4.60;2.70;;;;;;;;;;5135876;27;20218;-67
2023/05/27 12:38:42;;;;;;;4.25;2.90;;;;;;;;;;5135192;27;20194;-67
2023/05/27 12:41:09;;;;;;;4.13;2.58;;;;;;;;;;5135557;27;20231;-67
2023/05/27 12:43:38;;;;;;;4.20;2.53;;;;;;;;;;5135120;27;20214;-67
2023/05/27 12:46:06;;;;;;;3.05;2.50;;;;;;;;;;5135126;27;20202;-67
2023/05/27 12:48:33;;;;;;;6.07;2.67;;;;;;;;;;5132400;27;20202;-68
2023/05/27 12:51:01;;;;;;;4.03;2.83;;;;;;;;;;5133485;27;20201;-67
2023/05/27 12:53:28;;;;;;;3.60;2.50;;;;;;;;;;5134755;27;20461;-67
2023/05/27 12:55:57;;;;;;;4.50;2.70;;;;;;;;;;5133984;27;20471;-67
2023/05/27 12:58:24;;;;;;;4.32;3.15;;;;;;;;;;5133732;27;20203;-67
2023/05/27 13:00:54;;;;;;;4.60;2.75;;;;;;;;;;5134689;27;20224;-67
2023/05/27 13:03:21;;;;;;;4.28;2.78;;;;;;;;;;5135205;27;20502;-67
2023/05/27 13:05:49;;;;;;;4.03;2.60;;;;;;;;;;5134384;28;20598;-67
2023/05/27 13:08:16;;;;;;;3.40;2.65;;;;;;;;;;5134230;28;20241;-67
2023/05/27 13:10:44;;;;;;;4.28;2.70;;;;;;;;;;5136289;28;20209;-67
2023/05/27 13:13:11;;;;;;;5.28;2.70;;;;;;;;;;5135632;28;20255;-68
2023/05/27 13:15:39;;;;;;;3.50;2.28;;;;;;;;;;5134500;28;20198;-67
2023/05/27 13:18:09;;;;;;;4.50;2.70;;;;;;;;;;5133819;28;20205;-67
2023/05/27 13:20:37;;;;;;;3.22;2.72;;;;;;;;;;5134015;28;20212;-67
2023/05/27 13:23:05;;;;;;;4.03;2.55;;;;;;;;;;5134322;28;20528;-67
2023/05/27 13:25:32;;;;;;;4.00;2.88;;;;;;;;;;5133928;28;20210;-67
2023/05/27 13:28:00;;;;;;;3.38;2.50;;;;;;;;;;5134334;28;20255;-68
2023/05/27 13:30:28;;;;;;;5.03;3.08;;;;;;;;;;5134978;28;20488;-67
2023/05/27 13:32:56;;;;;;;3.70;2.67;;;;;;;;;;5134800;28;20213;-68
2023/05/27 13:35:25;;;;;;;3.70;2.80;;;;;;;;;;5134598;28;20209;-68
2023/05/27 13:37:52;;;;;;;4.60;2.90;;;;;;;;;;5134396;28;20229;-67
2023/05/27 13:40:20;;;;;;;4.20;2.85;;;;;;;;;;5134858;28;20503;-67
2023/05/27 13:42:47;;;;;;;6.30;2.65;;;;;;;;;;5135081;27;20262;-68
2023/05/27 13:45:14;;;;;;;4.43;2.53;;;;;;;;;;5137811;27;20494;-68
2023/05/27 13:47:44;;;;;;;4.70;2.63;;;;;;;;;;5138940;27;20203;-68
2023/05/27 13:50:11;;;;;;;3.60;2.92;;;;;;;;;;5139022;27;20209;-67
2023/05/27 13:52:41;;;;;;;4.70;2.83;;;;;;;;;;5138380;27;20202;-67
2023/05/27 13:55:09;;;;;;;3.83;2.53;;;;;;;;;;5137659;27;20202;-67
2023/05/27 13:57:36;;;;;;;5.07;2.75;;;;;;;;;;5137971;27;20209;-68
2023/05/27 14:00:06;;;;;;;3.13;2.72;;;;;;;;;;5137760;27;20197;-68
2023/05/27 14:02:33;;;;;;;4.85;3.20;;;;;;;;;;5136647;27;20593;-67
2023/05/27 14:05:01;;;;;;;3.55;2.70;;;;;;;;;;5138453;27;20251;-67
2023/05/27 14:07:29;;;;;;;4.72;3.00;;;;;;;;;;5138598;27;20594;-68
2023/05/27 14:09:58;;;;;;;5.13;2.92;;;;;;;;;;5137618;27;20335;-67
2023/05/27 14:12:25;;;;;;;5.25;2.78;;;;;;;;;;5138448;27;20202;-67
2023/05/27 14:14:53;;;;;;;5.05;2.63;;;;;;;;;;5137011;27;20283;-68
2023/05/27 14:17:20;;;;;;;4.30;3.00;;;;;;;;;;5137621;27;20206;-67
2023/05/27 14:19:48;;;;;;;4.88;3.45;;;;;;;;;;5137253;27;20198;-68
2023/05/27 14:22:16;;;;;;;4.63;2.83;;;;;;;;;;5139609;27;20275;-68
2023/05/27 14:24:43;;;;;;;4.22;3.22;;;;;;;;;;5138226;27;20333;-67
2023/05/27 14:27:12;;;;;;;5.07;2.90;;;;;;;;;;5137328;27;20202;-67
2023/05/27 14:29:39;;;;;;;4.82;3.08;;;;;;;;;;5123557;27;20243;-65
2023/05/27 14:32:07;;;;;;;3.75;3.25;;;;;;;;;;5117184;28;20202;-64
2023/05/27 14:34:34;;;;;;;6.32;3.35;;;;;;;;;;5116240;28;20199;-64
2023/05/27 14:37:02;;;;;;;5.28;3.25;;;;;;;;;;5116329;28;20218;-64
2023/05/27 14:39:29;;;;;;;5.78;3.10;;;;;;;;;;5115711;28;20220;-63
2023/05/27 14:41:57;;;;;;;4.18;3.15;;;;;;;;;;5115220;28;20199;-64
2023/05/27 14:44:25;;;;;;;4.93;3.13;;;;;;;;;;5116880;28;20234;-64
2023/05/27 14:46:53;;;;;;;5.72;3.63;;;;;;;;;;5116716;28;20203;-64
2023/05/27 14:49:20;;;;;;;5.28;3.25;;;;;;;;;;5115605;28;20301;-64
2023/05/27 14:51:47;;;;;;;6.07;3.30;;;;;;;;;;5116071;28;20211;-64